Aviation Digital Data Service (ADDS)

Output produced by METARs form (0731 UTC 03 August 2021)
found at http://www.aviationweather.gov/metar/data/
 
KTHV 030653Z AUTO 00000KT 10SM CLR 12/11 A3011 RMK AO2 SLP196 T01220111 $
KTHV 030553Z AUTO 00000KT 10SM CLR 13/11 A3011 RMK AO2 SLP196 T01280111 10206 20128 50004 $
KTHV 030453Z AUTO 00000KT 10SM CLR 14/12 A3012 RMK AO2 SLP198 T01390122 402610133 $
KTHV 030353Z AUTO 00000KT 10SM CLR 14/13 A3011 RMK AO2 SLP197 T01440128 $
KTHV 030253Z AUTO 00000KT 10SM CLR 14/13 A3010 RMK AO2 SLP192 T01440128 53012 $
KTHV 030153Z AUTO 00000KT 10SM CLR 16/13 A3009 RMK AO2 SLP189 T01560133 $
KTHV 030053Z AUTO 00000KT 10SM CLR 17/14 A3007 RMK AO2 SLP183 T01670144 $
KTHV 022353Z AUTO 00000KT 10SM CLR 21/16 A3006 RMK AO2 SLP179 T02110156 10261 20211 53006 $
KTHV 022253Z AUTO 01004KT 10SM FEW070 26/12 A3004 RMK AO2 SLP173 T02560117 $
KTHV 022153Z AUTO 00000KT 10SM CLR 24/11 A3005 RMK AO2 SLP175 T02440111 $
KTHV 022053Z AUTO 30007KT 10SM CLR 26/12 A3004 RMK AO2 SLP173 T02560117 56004
KTHV 021953Z AUTO 31006KT 10SM CLR 26/12 A3005 RMK AO2 SLP174 T02560122
KTHV 021853Z AUTO 34007KT 10SM FEW055 25/12 A3005 RMK AO2 SLP176 T02500122
KTHV 021753Z AUTO VRB06KT 10SM BKN046 23/13 A3006 RMK AO2 SLP177 T02330133 10244 20172 50000
KTHV 021653Z AUTO 33007KT 10SM SCT038 22/13 A3006 RMK AO2 SLP179 T02220128
KTHV 021553Z AUTO 33008KT 10SM BKN039 22/13 A3006 RMK AO2 SLP180 T02170128
KTHV 021453Z AUTO 35006KT 10SM BKN031 22/14 A3006 RMK AO2 SLP178 T02170139 51014
KTHV 021353Z AUTO 31008G16KT 10SM CLR 20/14 A3004 RMK AO2 SLP172 T02000139
KTHV 021253Z AUTO 33008KT 10SM CLR 19/15 A3004 RMK AO2 SLP171 T01940150
KTHV 021153Z AUTO 29004KT 10SM CLR 18/14 A3001 RMK AO2 SLP164 70040 T01830144 10183 20133 53022
KTHV 021053Z AUTO 28003KT 9SM CLR 14/13 A2999 RMK AO2 SLP155 T01440133
KTHV 020953Z AUTO 29004KT 10SM CLR 14/13 A2997 RMK AO2 SLP148 T01390128 $
KTHV 020853Z AUTO 28004KT 8SM CLR 14/13 A2995 RMK AO2 SLP140 T01440133 53010 $
KTHV 020834Z AUTO 29004KT 4SM BR CLR 14/13 A2995 RMK AO2 T01440128 $
KTHV 020831Z AUTO 29004KT 1 1/4SM BR CLR 13/12 A2994 RMK AO2 T01330122 $
KTHV 020822Z AUTO 30003KT 3/4SM BR VV003 14/13 A2994 RMK AO2 T01390128 $
KTHV 020819Z AUTO 00000KT 1 1/4SM BR FEW003 14/13 A2994 RMK AO2 T01390128 $
KTHV 020803Z AUTO 00000KT 3/4SM BR VV003 14/13 A2993 RMK AO2 T01390128 $
KTHV 020753Z AUTO 00000KT 1/4SM FG VV002 14/13 A2993 RMK AO2 SLP135 T01390128 $
KTHV 020717Z AUTO 00000KT 3/4SM BR VV001 14/13 A2992 RMK AO2 T01440133 $
KTHV 020708Z AUTO 00000KT 1 1/4SM BR SCT001 15/14 A2992 RMK AO2 VIS 1/2V4 T01500139 $
KTHV 020704Z AUTO 00000KT 3/4SM BR VV002 15/14 A2992 RMK AO2 T01500139 $
KTHV 020657Z AUTO 00000KT 1SM BR VV003 15/14 A2992 RMK AO2 T01500144 $
KTHV 020653Z AUTO 00000KT 2SM BR SCT003 16/14 A2992 RMK AO2 SLP131 T01560144 $
KTHV 020553Z AUTO 00000KT 5SM BR OVC003 16/15 A2992 RMK AO2 SLP130 60038 T01610150 10200 20161 58002 $
KTHV 020453Z AUTO 00000KT 7SM OVC003 17/16 A2992 RMK AO2 SLP132 T01670156 402720150 $
KTHV 020438Z AUTO 00000KT 5SM BR OVC003 17/16 A2992 RMK AO2 T01670156 $
KTHV 020428Z AUTO 00000KT 2 1/2SM BR OVC003 17/16 A2992 RMK AO2 T01670156 $
KTHV 020419Z AUTO 00000KT 1 1/4SM BR BKN005 16/15 A2992 RMK AO2 T01610150 $
KTHV 020413Z AUTO 00000KT 3/4SM BR BKN005 BKN095 16/15 A2992 RMK AO2 T01610150 $
KTHV 020409Z AUTO 00000KT 1SM BR SCT005 SCT095 16/16 A2992 RMK AO2 T01610156 $
KTHV 020404Z AUTO 00000KT 2SM BR FEW095 17/16 A2992 RMK AO2 T01670156 $
KTHV 020353Z AUTO 00000KT 6SM BR BKN100 17/16 A2992 RMK AO2 SLP131 T01720156 $
KTHV 020253Z AUTO 00000KT 6SM BR SCT005 BKN100 17/16 A2992 RMK AO2 SLP132 60038 T01720156 53018 $
KTHV 020153Z AUTO 31003KT 10SM BKN090 BKN100 17/16 A2990 RMK AO2 SLP126 T01670156 $
KTHV 020053Z AUTO 01003KT 10SM BKN060 18/16 A2988 RMK AO2 PK WND 31026/2354 LTG DSNT SE RAE17 TSB2358E13 SLP120 P0038 T01780161 $
KTHV 020037Z AUTO 01003KT 10SM SCT050 BKN065 OVC120 18/16 A2988 RMK AO2 PK WND 31026/2354 LTG DSNT E RAE17 TSB2358E13 P0038 T01780161 $
KTHV 020019Z AUTO 11003KT 10SM VCTS 18/16 A2988 RMK AO2 PK WND 31026/2354 RAE17 TSB2358E13 P0038 T01780161 $
KTHV 020011Z AUTO 09005KT 1 1/4SM -TSRA BR 18/17 A2987 RMK AO2 PK WND 31026/2354 LTG DSNT NE TSB2358 P0038 T01780167 $
KTHV 012358Z AUTO 3/4SM +TSRA 19/16 A2986 RMK AO2 PK WND 31026/2354 LTG DSNT NE TSB58 P0017 T01940156 $
KTHV 012356Z AUTO 33014G26KT 1SM VCTS +RA FEW009 SCT017 BKN026 19/16 A2987 RMK AO2 PK WND 31026/2354 LTG DSNT NE P0011 T01940156
KTHV 012353Z AUTO 31012G27KT 280V350 6SM VCTS -RA FEW019 BKN028 BKN043 21/16 A2987 RMK AO2 PK WND 01027/2346 LTG DSNT NE RAB52 PRESRR SLP115 P0002 60002 T02060156 10272 20206 53019
KTHV 012335Z AUTO 00000KT 10SM VCTS FEW050 SCT060 BKN085 24/19 A2982 RMK AO2 LTG DSNT N AND NE T02390194
KTHV 012253Z AUTO 13003KT 10SM SCT120 24/19 A2981 RMK AO2 LTG DSNT N RAB23E39 SLP093 P0000 T02390194
KTHV 012153Z AUTO 10006KT 10SM FEW120 25/19 A2981 RMK AO2 SLP094 T02500189
KTHV 012053Z AUTO 09006KT 10SM SCT036 BKN046 26/18 A2981 RMK AO2 SLP095 T02560183 58008
KTHV 011953Z AUTO 20006KT 10SM FEW060 26/17 A2982 RMK AO2 SLP097 T02610172